Flight Track Log - Related Links

Times and Time Zones

All times are in EDT time to prevent confusion due to time zone crossing. See the EGF3994 flight status page for this flight to view local times or setup timezone preferences in your user account.

Time Position Orientation Groundspeed Altitude Reporting Facility
EDT Latitude Longitude Course Direction KTS MPH feet Rate Location/Type
Tue 06:48:41 PM 42.0000 -87.8833 90° East 149 171 1,200  Level Chicago TRACON
Tue 06:49:35 PM 42.0000 -87.8333 90° East 188 216 3,200 2,090 Climbing Chicago TRACON
Tue 06:50:10 PM 42.0039 -87.7900 83° East 194 223 4,300 1,918 Climbing Chicago Center
Tue 06:51:00 PM 41.9603 -87.4698 98° East  Level FlightAware Approximate
Tue 06:51:12 PM 41.9958 -87.7000 97° East 222 255 6,300  Level Chicago Center
Tue 06:52:00 PM 41.9472 -87.3273 95° East  Level FlightAware Approximate
Tue 06:52:15 PM 41.9853 -87.5967 98° East 270 311 8,500  Level Chicago Center
Tue 06:53:00 PM 41.9370 -87.1845 95° East  Level FlightAware Approximate
Tue 06:53:17 PM 41.9786 -87.4850 95° East 300 345 10,200  Level Chicago Center
Tue 06:54:00 PM 41.9333 -87.0593 90° East  Level FlightAware Approximate
Tue 06:54:19 PM 41.9689 -87.3628 96° East 327 376 12,100  Level Chicago Center
Tue 06:55:21 PM 41.9594 -87.2400 96° East 330 380 13,800 1,887 Climbing Chicago Center
Tue 06:56:23 PM 41.9467 -87.0836 96° East 347 399 16,000 1,887 Climbing Chicago Center
Tue 06:57:25 PM 41.9461 -86.9464 90° East 371 427 17,700 1,258 Climbing Chicago Center
Tue 06:58:27 PM 41.9492 -86.8094 88° East 371 427 18,600 629 Climbing Chicago Center
Tue 06:59:29 PM 41.9508 -86.6667 89° East 380 437 19,000 194 Climbing Chicago Center
Tue 07:00:31 PM 41.9522 -86.5039 89° East 423 487 19,000 48 Level Chicago Center
Tue 07:01:33 PM 41.9528 -86.3367 90° East 442 509 19,100 774 Climbing Chicago Center
Tue 07:02:35 PM 41.9342 -86.1414 97° East 443 510 20,600 1,355 Climbing Chicago Center
Tue 07:03:37 PM 41.8878 -85.9892 112° Southeast 441 507 21,900 1,152 Climbing Chicago Center
Tue 07:04:40 PM 41.8431 -85.8364 111° Southeast 439 505 23,000 528 Climbing Chicago Center
Tue 07:05:42 PM 41.7961 -85.6794 112° Southeast 452 520 23,000  Level Chicago Center
Tue 07:06:44 PM 41.7461 -85.5158 112° Southeast 468 539 23,000  Level Chicago Center
Tue 07:07:46 PM 41.6333 -85.3972 142° Southeast 468 539 23,000  Level Chicago Center
Tue 07:08:48 PM 41.5333 -85.2928 142° Southeast 468 539 23,000  Level Chicago Center
Tue 07:09:50 PM 41.4311 -85.1869 142° Southeast 468 539 23,000  Level Chicago Center
Tue 07:10:52 PM 41.3289 -85.0842 143° Southeast 462 532 23,000 -339 Level Chicago Center
Tue 07:11:54 PM 41.2075 -84.9597 142° Southeast 461 531 22,300 -1,645 Descending Chicago Center
Tue 07:12:56 PM 41.1092 -84.8589 142° Southeast 452 520 19,600 -2,516 Descending Chicago Center
Tue 07:13:58 PM 41.0156 -84.7650 143° Southeast 432 497 17,100 -2,081 Descending Chicago Center
Tue 07:15:00 PM 40.9253 -84.6750 143° Southeast 413 475 15,300 -1,355 Descending Chicago Center
Tue 07:15:31 PM 40.8728 -84.6233 143° Southeast 408 470 15,000 -194 Descending Indianapolis Center
Tue 07:16:33 PM 40.7842 -84.5358 143° Southeast 397 457 15,000  Level Indianapolis Center
Tue 07:17:04 PM 40.7344 -84.4839 142° Southeast 399 459 15,000 -290 Level Indianapolis Center
Tue 07:17:35 PM 40.6939 -84.4461 145° Southeast 401 461 14,700 -835 Descending Indianapolis Center
Tue 07:18:23 PM 40.6181 -84.3689 142° Southeast 400 460 13,900 -1,266 Descending Indianapolis Center
Tue 07:19:24 PM 40.5131 -84.3436 170° South 377 434 12,400 -1,421 Descending Indianapolis Center
Tue 07:19:39 PM 40.4978 -84.3408 172° South 377 434 12,100 -1,279 Descending Indianapolis Center
Tue 07:20:25 PM 40.4058 -84.3233 172° South 366 421 11,100 -1,082 Descending Indianapolis Center
Tue 07:20:40 PM 40.3956 -84.3211 171° South 371 427 11,000 -727 Descending Indianapolis Center
Tue 07:21:31 PM 40.2942 -84.3028 172° South 369 425 10,300 -536 Descending Indianapolis Center
Tue 07:22:32 PM 40.1928 -84.2864 173° South 374 430 10,000 -344 Descending Indianapolis Center
Tue 07:23:33 PM 40.1017 -84.2742 174° South 312 359 9,600 -1,041 Descending Indianapolis Center
Tue 07:24:33 PM 40.0161 -84.2683 177° South 273 314 7,900 -1,700 Descending Indianapolis Center

Login

Don't have an account? Register now (free) for customized features, flight alerts, and more!